createdAt,value
2022-10-28T00:01:24.978Z,78.79
2022-10-28T00:03:57.227Z,80.37
2022-10-28T00:06:28.151Z,77.85
2022-10-28T00:08:56.906Z,78.05
2022-10-28T00:11:30.528Z,77.47
2022-10-28T00:14:01.377Z,76.95
2022-10-28T00:16:32.457Z,78.40
2022-10-28T00:19:01.444Z,78.37
2022-10-28T00:21:31.519Z,75.53
2022-10-28T00:24:00.232Z,73.13
2022-10-28T00:26:31.447Z,74.35
2022-10-28T00:29:11.548Z,75.14
2022-10-28T00:31:40.334Z,76.68
2022-10-28T00:34:11.836Z,80.03
2022-10-28T00:36:42.026Z,77.26
2022-10-28T00:39:16.147Z,77.68
2022-10-28T00:41:56.755Z,78.08
2022-10-28T00:44:57.888Z,79.20
2022-10-28T00:47:52.735Z,78.29
2022-10-28T00:50:39.567Z,77.62
2022-10-28T00:53:29.570Z,79.00
2022-10-28T00:55:58.738Z,79.05
2022-10-28T00:58:27.146Z,79.40
2022-10-28T01:00:55.290Z,76.26
2022-10-28T01:03:23.486Z,76.09
2022-10-28T01:05:52.407Z,77.43
2022-10-28T01:08:20.808Z,77.06
2022-10-28T01:11:08.178Z,75.72
2022-10-28T01:13:56.609Z,77.34
2022-10-28T01:16:33.728Z,76.24
2022-10-28T01:19:24.169Z,74.85
2022-10-28T01:22:13.452Z,78.89
2022-10-28T01:24:55.550Z,79.94
2022-10-28T01:27:38.621Z,81.36
2022-10-28T01:30:09.178Z,80.83
2022-10-28T01:33:10.577Z,79.75
2022-10-28T01:35:44.598Z,79.06
2022-10-28T01:38:23.877Z,77.39
2022-10-28T01:41:08.877Z,78.19
2022-10-28T01:44:01.628Z,77.16
2022-10-28T01:46:38.156Z,79.43
2022-10-28T01:49:14.577Z,79.64
2022-10-28T01:51:47.135Z,78.85
2022-10-28T01:54:22.647Z,77.58
2022-10-28T01:56:51.466Z,79.55
2022-10-28T01:59:23.205Z,80.63
2022-10-28T02:01:51.662Z,80.24
2022-10-28T02:04:20.008Z,81.04
2022-10-28T02:06:51.418Z,81.37
2022-10-28T02:09:19.571Z,80.19
2022-10-28T02:12:14.956Z,79.65
2022-10-28T02:15:01.936Z,79.29
2022-10-28T02:17:48.196Z,80.70
2022-10-28T02:20:40.639Z,82.66
2022-10-28T02:23:12.100Z,81.21
2022-10-28T02:25:46.207Z,81.56
2022-10-28T02:28:18.660Z,82.11
2022-10-28T02:30:50.108Z,83.42
2022-10-28T02:33:24.617Z,82.61
2022-10-28T02:36:04.956Z,81.87
2022-10-28T02:38:36.631Z,81.70
2022-10-28T02:41:10.706Z,81.74
2022-10-28T02:43:39.888Z,80.41
2022-10-28T02:46:08.908Z,81.14
2022-10-28T02:48:47.700Z,82.74
2022-10-28T02:51:19.017Z,82.32
2022-10-28T02:54:04.927Z,81.84
2022-10-28T02:56:37.686Z,81.19
2022-10-28T02:59:09.716Z,81.45
2022-10-28T03:01:38.535Z,81.70
2022-10-28T03:04:06.788Z,83.00
2022-10-28T03:06:34.653Z,84.37
2022-10-28T03:09:02.878Z,83.03
2022-10-28T03:11:30.766Z,80.96
2022-10-28T03:13:58.625Z,75.87
2022-10-28T03:16:26.976Z,77.33
2022-10-28T03:18:55.216Z,77.72
2022-10-28T03:21:23.107Z,77.61
2022-10-28T03:23:51.257Z,76.50
2022-10-28T03:26:19.267Z,79.63
2022-10-28T03:28:47.188Z,80.05
2022-10-28T03:31:15.975Z,76.05
2022-10-28T03:33:43.817Z,81.45
2022-10-28T03:36:11.678Z,82.89
2022-10-28T03:38:39.917Z,82.36
2022-10-28T03:41:07.719Z,81.83
2022-10-28T03:43:35.578Z,83.41
2022-10-28T03:46:03.854Z,82.08
2022-10-28T03:48:31.762Z,83.01
2022-10-28T03:50:59.749Z,82.40
2022-10-28T03:53:31.159Z,78.99
2022-10-28T03:56:00.821Z,79.71
2022-10-28T03:58:29.412Z,79.34
2022-10-28T04:00:57.654Z,79.14
2022-10-28T04:03:26.496Z,79.79
2022-10-28T04:05:54.598Z,80.52
2022-10-28T04:08:22.717Z,80.85
2022-10-28T04:10:51.028Z,80.30
2022-10-28T04:13:18.923Z,80.10
2022-10-28T04:15:47.017Z,78.89
2022-10-28T04:18:15.267Z,80.75
2022-10-28T04:20:43.279Z,79.93
2022-10-28T04:23:15.011Z,82.22
2022-10-28T04:25:44.098Z,81.09
2022-10-28T04:28:12.031Z,78.21
2022-10-28T04:30:39.979Z,75.53
2022-10-28T04:33:10.457Z,76.36
2022-10-28T04:35:39.489Z,80.00
2022-10-28T04:38:07.357Z,82.04
2022-10-28T04:40:35.647Z,80.69
2022-10-28T04:43:04.893Z,78.96
2022-10-28T04:45:35.479Z,81.24
2022-10-28T04:48:03.397Z,80.52
2022-10-28T04:50:31.209Z,81.27
2022-10-28T04:53:00.946Z,82.66
2022-10-28T04:55:28.897Z,82.83
2022-10-28T04:57:58.638Z,84.04
2022-10-28T05:00:28.944Z,83.89
2022-10-28T05:02:57.392Z,83.79
2022-10-28T05:05:26.139Z,83.13
2022-10-28T05:07:54.512Z,83.26
2022-10-28T05:10:22.574Z,84.28
2022-10-28T05:12:50.428Z,83.94
2022-10-28T05:15:18.708Z,83.57
2022-10-28T05:17:47.768Z,83.77
2022-10-28T05:20:17.418Z,84.49
2022-10-28T05:22:50.577Z,86.57
2022-10-28T05:25:19.296Z,85.09
2022-10-28T05:27:47.947Z,86.90
2022-10-28T05:30:15.998Z,85.01
2022-10-28T05:32:43.877Z,86.83
2022-10-28T05:35:12.158Z,84.77
2022-10-28T05:37:40.023Z,82.53
2022-10-28T05:40:08.739Z,84.36
2022-10-28T05:42:43.618Z,81.84
2022-10-28T05:45:12.341Z,82.92
2022-10-28T05:47:47.911Z,83.96
2022-10-28T05:50:18.637Z,85.11
2022-10-28T05:52:52.008Z,83.92
2022-10-28T05:55:21.866Z,80.03
2022-10-28T05:57:51.627Z,79.63
2022-10-28T06:00:21.838Z,81.98
2022-10-28T06:02:50.168Z,80.03
2022-10-28T06:05:18.478Z,81.94
2022-10-28T06:07:46.320Z,80.50
2022-10-28T06:10:14.528Z,83.81
2022-10-28T06:12:40.925Z,84.93
2022-10-28T06:15:09.210Z,83.86
2022-10-28T06:17:37.397Z,79.08
2022-10-28T06:20:05.849Z,83.61
2022-10-28T06:22:33.900Z,84.12
2022-10-28T06:25:02.475Z,82.68
2022-10-28T06:27:30.336Z,84.32
2022-10-28T06:29:58.339Z,80.78
2022-10-28T06:32:26.691Z,78.37
2022-10-28T06:34:54.603Z,81.71
2022-10-28T06:37:22.585Z,83.88
2022-10-28T06:39:52.187Z,80.14
2022-10-28T06:42:20.121Z,82.08
2022-10-28T06:44:49.521Z,83.11
2022-10-28T06:47:19.238Z,82.45
2022-10-28T06:49:47.408Z,80.98
2022-10-28T06:52:15.562Z,79.10
2022-10-28T06:54:43.907Z,82.48
2022-10-28T06:57:11.883Z,85.49
2022-10-28T06:59:39.859Z,85.93
2022-10-28T07:02:11.881Z,87.09
2022-10-28T07:04:39.890Z,82.91
2022-10-28T07:07:08.549Z,81.85
2022-10-28T07:09:39.761Z,81.30
2022-10-28T07:12:08.325Z,85.58
2022-10-28T07:14:36.671Z,84.51
2022-10-28T07:17:04.802Z,82.15
2022-10-28T07:19:32.895Z,81.38
2022-10-28T07:22:01.216Z,80.51
2022-10-28T07:24:29.180Z,78.42
2022-10-28T07:26:57.948Z,78.40
2022-10-28T07:29:26.759Z,81.14
2022-10-28T07:31:55.859Z,83.17
2022-10-28T07:34:26.952Z,79.96
2022-10-28T07:36:56.394Z,80.99
2022-10-28T07:39:24.799Z,81.78
2022-10-28T07:41:52.904Z,84.91
2022-10-28T07:44:21.252Z,83.53
2022-10-28T07:46:49.961Z,80.90
2022-10-28T07:49:19.816Z,80.68
2022-10-28T07:51:51.023Z,79.51
2022-10-28T07:54:19.041Z,79.89
2022-10-28T07:56:47.432Z,79.94
2022-10-28T07:59:15.662Z,81.53
2022-10-28T08:01:43.864Z,82.83
2022-10-28T08:04:12.353Z,82.24
2022-10-28T08:06:40.454Z,83.05
2022-10-28T08:09:08.599Z,82.42
2022-10-28T08:11:36.980Z,80.11
2022-10-28T08:14:05.071Z,81.39
2022-10-28T08:16:32.997Z,81.04
2022-10-28T08:19:06.697Z,83.41
2022-10-28T08:21:35.757Z,79.95
2022-10-28T08:24:04.248Z,82.88
2022-10-28T08:26:32.176Z,86.22
2022-10-28T08:29:01.769Z,86.37
2022-10-28T08:31:32.775Z,83.49
2022-10-28T08:34:00.716Z,87.38
2022-10-28T08:36:28.886Z,85.47
2022-10-28T08:38:59.456Z,84.16
2022-10-28T08:41:33.463Z,83.28
2022-10-28T08:44:31.615Z,86.58
2022-10-28T08:47:11.511Z,85.22
2022-10-28T08:49:43.504Z,85.26
2022-10-28T08:52:33.192Z,84.81
2022-10-28T08:55:15.303Z,87.58
2022-10-28T08:58:13.802Z,85.65
2022-10-28T09:00:45.113Z,82.13
2022-10-28T09:03:13.142Z,86.26
2022-10-28T09:05:48.282Z,88.46
2022-10-28T09:08:26.444Z,81.50
2022-10-28T09:11:27.521Z,80.57
2022-10-28T09:13:58.373Z,86.48
2022-10-28T09:16:50.441Z,88.52
2022-10-28T09:19:52.033Z,86.56
2022-10-28T09:22:36.544Z,86.37
2022-10-28T09:25:22.696Z,80.22
2022-10-28T09:28:00.923Z,82.92
2022-10-28T09:31:02.543Z,82.72
2022-10-28T09:33:43.545Z,80.85
2022-10-28T09:36:19.194Z,87.51
2022-10-28T09:38:48.023Z,82.08
2022-10-28T09:41:22.814Z,84.30
2022-10-28T09:43:59.196Z,82.18
2022-10-28T09:46:32.013Z,82.20
2022-10-28T09:49:06.437Z,82.05
2022-10-28T09:51:56.025Z,85.07
2022-10-28T09:54:33.195Z,87.35
2022-10-28T09:57:02.650Z,83.80
2022-10-28T09:59:31.312Z,81.01
2022-10-28T10:01:59.537Z,83.05
2022-10-28T10:04:31.524Z,84.92
2022-10-28T10:07:06.283Z,83.35
2022-10-28T10:09:36.514Z,83.12
2022-10-28T10:12:09.477Z,85.72
2022-10-28T10:14:44.471Z,83.96
2022-10-28T10:17:19.083Z,83.60
2022-10-28T10:20:18.366Z,80.80
2022-10-28T10:22:48.414Z,81.56
2022-10-28T10:25:19.833Z,82.75
2022-10-28T10:28:02.872Z,85.39
2022-10-28T10:30:41.386Z,84.08
2022-10-28T10:33:24.597Z,83.53
2022-10-28T10:35:59.072Z,85.86
2022-10-28T10:38:29.423Z,85.34
2022-10-28T10:40:58.095Z,83.31
2022-10-28T10:43:36.398Z,84.57
2022-10-28T10:46:06.005Z,83.71
2022-10-28T10:48:36.683Z,87.51
2022-10-28T10:51:22.624Z,84.81
2022-10-28T10:53:52.836Z,85.38
2022-10-28T10:56:27.115Z,80.31
2022-10-28T10:58:56.804Z,81.89
2022-10-28T11:01:27.812Z,82.00
2022-10-28T11:03:59.845Z,85.25
2022-10-28T11:06:33.375Z,84.15
2022-10-28T11:09:04.359Z,84.13
2022-10-28T11:11:39.385Z,81.69
2022-10-28T11:14:10.264Z,85.77
2022-10-28T11:16:53.435Z,83.39
2022-10-28T11:19:24.136Z,81.01
2022-10-28T11:22:17.334Z,84.13
2022-10-28T11:24:51.927Z,82.34
2022-10-28T11:27:37.524Z,79.97
2022-10-28T11:30:06.634Z,80.71
2022-10-28T11:33:28.387Z,82.42
2022-10-28T11:36:02.697Z,83.93
2022-10-28T11:38:55.292Z,82.46
2022-10-28T11:41:37.097Z,87.10
2022-10-28T11:44:17.027Z,84.44
2022-10-28T11:47:17.245Z,85.51
2022-10-28T11:50:03.874Z,83.95
2022-10-28T11:52:35.448Z,84.55
2022-10-28T11:55:23.154Z,86.64
2022-10-28T11:58:16.390Z,81.89
2022-10-28T12:00:58.906Z,82.50
2022-10-28T12:03:48.177Z,85.88
2022-10-28T12:06:30.418Z,82.75
2022-10-28T12:09:04.686Z,80.70
2022-10-28T12:11:59.078Z,81.45
2022-10-28T12:14:39.846Z,85.11
2022-10-28T12:17:17.353Z,82.13
2022-10-28T12:19:53.986Z,82.25
2022-10-28T12:22:24.645Z,81.03
2022-10-28T12:24:53.812Z,81.59
2022-10-28T12:27:31.586Z,83.26
2022-10-28T12:30:40.965Z,84.49
2022-10-28T12:33:18.076Z,81.00
2022-10-28T12:35:51.585Z,86.86
2022-10-28T12:38:43.573Z,85.59
2022-10-28T12:41:25.398Z,87.06
2022-10-28T12:44:05.262Z,88.03
2022-10-28T12:47:11.202Z,86.50
2022-10-28T12:49:46.065Z,83.50
2022-10-28T12:52:24.878Z,81.94
2022-10-28T12:55:04.429Z,81.98
2022-10-28T12:57:34.506Z,81.96
2022-10-28T13:00:07.396Z,82.24
2022-10-28T13:02:41.910Z,81.18
2022-10-28T13:05:26.884Z,85.98
2022-10-28T13:08:17.443Z,81.34
2022-10-28T13:11:13.004Z,82.61
2022-10-28T13:13:56.345Z,82.79
2022-10-28T13:16:36.504Z,86.77
2022-10-28T13:19:29.264Z,83.12
2022-10-28T13:22:00.027Z,83.11
2022-10-28T13:24:37.146Z,84.27
2022-10-28T13:27:06.013Z,83.82
2022-10-28T13:29:35.375Z,81.06
2022-10-28T13:32:03.545Z,83.03
2022-10-28T13:34:36.864Z,81.66
2022-10-28T13:37:06.913Z,83.52
2022-10-28T13:39:37.935Z,84.96
2022-10-28T13:42:13.325Z,81.45
2022-10-28T13:45:06.983Z,83.15
2022-10-28T13:47:36.371Z,84.79
2022-10-28T13:50:10.260Z,80.55
2022-10-28T13:52:39.904Z,82.29
2022-10-28T13:55:27.173Z,85.22
2022-10-28T13:58:01.444Z,82.99
2022-10-28T14:00:29.705Z,82.90
2022-10-28T14:03:06.519Z,83.03
2022-10-28T14:05:37.378Z,82.58
2022-10-28T14:08:07.947Z,84.68
2022-10-28T14:10:40.448Z,86.63
2022-10-28T14:13:20.739Z,84.24
2022-10-28T14:15:49.305Z,88.55
2022-10-28T14:21:05.860Z,85.85
2022-10-28T14:23:34.302Z,84.33
2022-10-28T14:26:06.133Z,85.99
2022-10-28T14:28:34.383Z,89.13
2022-10-28T14:31:08.368Z,87.61
2022-10-28T14:33:42.601Z,84.63
2022-10-28T14:36:19.864Z,82.97
2022-10-28T14:39:12.880Z,83.65
2022-10-28T14:41:46.402Z,85.32
2022-10-28T14:44:23.976Z,82.85
2022-10-28T14:47:00.104Z,82.26
2022-10-28T14:49:31.472Z,81.84
2022-10-28T14:52:09.043Z,83.99
2022-10-28T14:54:45.146Z,82.43
2022-10-28T14:57:13.314Z,81.37
2022-10-28T14:59:43.722Z,79.16
2022-10-28T15:02:15.494Z,79.67
2022-10-28T15:04:46.369Z,86.12
2022-10-28T15:07:19.101Z,84.40
2022-10-28T15:09:53.576Z,82.62
2022-10-28T15:12:23.461Z,81.94
2022-10-28T15:14:53.870Z,79.83
2022-10-28T15:17:21.770Z,83.36
2022-10-28T15:19:57.439Z,81.56
2022-10-28T15:22:28.599Z,80.33
2022-10-28T15:25:00.669Z,82.47
2022-10-28T15:27:31.608Z,84.61
2022-10-28T15:29:59.769Z,84.73
2022-10-28T15:32:35.420Z,81.72
2022-10-28T15:35:28.479Z,82.17
2022-10-28T15:37:59.579Z,83.62
2022-10-28T15:40:35.241Z,82.40
2022-10-28T15:43:07.849Z,81.60
2022-10-28T15:45:42.114Z,80.93
2022-10-28T15:48:12.831Z,80.80
2022-10-28T15:50:41.832Z,82.63
2022-10-28T15:53:09.748Z,80.22
2022-10-28T15:58:33.768Z,83.43
2022-10-28T16:01:01.816Z,83.19
2022-10-28T16:03:45.451Z,84.06
2022-10-28T16:06:27.449Z,85.03
2022-10-28T16:09:24.688Z,86.51
2022-10-28T16:11:57.737Z,86.11
2022-10-28T16:14:37.448Z,81.74
2022-10-28T16:17:16.130Z,82.80
2022-10-28T16:19:50.058Z,85.46
2022-10-28T16:22:18.748Z,83.95
2022-10-28T16:24:47.313Z,86.35
2022-10-28T16:27:23.871Z,87.29
2022-10-28T16:29:52.348Z,88.15
2022-10-28T16:32:28.161Z,89.41
2022-10-28T16:34:58.917Z,87.27
2022-10-28T16:37:29.038Z,84.63
2022-10-28T16:40:00.408Z,84.73
2022-10-28T16:42:28.400Z,83.58
2022-10-28T16:44:56.415Z,85.33
2022-10-28T16:47:29.316Z,86.02
2022-10-28T16:49:57.944Z,86.15
2022-10-28T16:52:29.292Z,84.22
2022-10-28T16:54:57.876Z,86.19
2022-10-28T16:57:26.847Z,85.30
2022-10-28T16:59:55.187Z,80.90
2022-10-28T17:02:31.698Z,83.55
2022-10-28T17:05:01.099Z,84.22
2022-10-28T17:07:29.169Z,81.43
2022-10-28T17:09:57.402Z,82.45
2022-10-28T17:12:27.219Z,85.45
2022-10-28T17:14:55.210Z,86.77
2022-10-28T17:17:23.154Z,86.60
2022-10-28T17:19:51.438Z,84.65
2022-10-28T17:22:19.358Z,83.95
2022-10-28T17:24:47.294Z,85.10
2022-10-28T17:27:15.978Z,84.77
2022-10-28T17:29:44.029Z,83.80
2022-10-28T17:32:12.107Z,82.91
2022-10-28T17:34:40.347Z,82.57
2022-10-28T17:37:08.250Z,85.83
2022-10-28T17:39:36.509Z,85.97
2022-10-28T17:42:05.078Z,84.40
2022-10-28T17:44:32.987Z,83.94
2022-10-28T17:47:01.118Z,84.89
2022-10-28T17:49:30.181Z,84.46
2022-10-28T17:51:58.191Z,80.66
2022-10-28T17:54:26.110Z,82.21
2022-10-28T17:56:54.418Z,85.28
2022-10-28T17:59:22.409Z,85.25
2022-10-28T18:01:50.609Z,86.98
2022-10-28T18:04:20.221Z,82.64
2022-10-28T18:06:48.106Z,83.23
2022-10-28T18:09:16.025Z,81.49
2022-10-28T18:11:44.367Z,84.28
2022-10-28T18:14:12.289Z,83.01
2022-10-28T18:16:40.279Z,83.87
2022-10-28T18:19:09.557Z,82.31
2022-10-28T18:21:37.539Z,82.85
2022-10-28T18:24:05.872Z,83.68
2022-10-28T18:26:35.883Z,80.76
2022-10-28T18:29:05.619Z,82.46
2022-10-28T18:31:34.217Z,84.91
2022-10-28T18:34:02.839Z,82.98
2022-10-28T18:36:34.687Z,86.90
2022-10-28T18:39:07.404Z,87.04
2022-10-28T18:41:40.871Z,87.69
2022-10-28T18:44:14.455Z,83.94
2022-10-28T18:46:42.731Z,85.75
2022-10-28T18:49:11.147Z,83.72
2022-10-28T18:51:39.056Z,83.35
2022-10-28T18:54:07.078Z,85.43
2022-10-28T18:56:35.401Z,85.06
2022-10-28T18:59:04.791Z,87.73
2022-10-28T19:01:33.627Z,85.98
2022-10-28T19:04:03.331Z,83.71
2022-10-28T19:06:33.420Z,88.57
2022-10-28T19:09:04.073Z,85.18
2022-10-28T19:11:33.859Z,89.01
2022-10-28T19:14:04.814Z,87.50
2022-10-28T19:16:34.418Z,84.91
2022-10-28T19:19:04.839Z,85.41
2022-10-28T19:21:33.181Z,82.88
2022-10-28T19:24:01.118Z,82.61
2022-10-28T19:26:30.588Z,83.26
2022-10-28T19:28:58.548Z,85.55
2022-10-28T19:31:27.364Z,87.32
2022-10-28T19:33:55.962Z,86.89
2022-10-28T19:36:25.714Z,85.79
2022-10-28T19:38:54.630Z,86.18
2022-10-28T19:41:28.077Z,84.73
2022-10-28T19:44:00.678Z,84.27
2022-10-28T19:46:34.191Z,82.50
2022-10-28T19:49:07.130Z,85.06
2022-10-28T19:51:42.080Z,87.35
2022-10-28T19:54:12.123Z,84.43
2022-10-28T19:56:41.732Z,85.74
2022-10-28T19:59:09.751Z,85.10
2022-10-28T20:01:39.686Z,86.36
2022-10-28T20:04:10.317Z,84.36
2022-10-28T20:06:40.128Z,85.04
2022-10-28T20:09:08.739Z,84.76
2022-10-28T20:11:38.115Z,88.62
2022-10-28T20:14:12.686Z,86.16
2022-10-28T20:16:43.165Z,86.33
2022-10-28T20:19:11.628Z,85.92
2022-10-28T20:21:39.777Z,85.87
2022-10-28T20:24:08.496Z,82.01
2022-10-28T20:26:38.211Z,84.33
2022-10-28T20:29:10.199Z,86.49
2022-10-28T20:31:39.255Z,85.14
2022-10-28T20:34:07.759Z,87.55
2022-10-28T20:36:45.085Z,86.31
2022-10-28T20:39:18.896Z,80.46
2022-10-28T20:41:48.149Z,84.59
2022-10-28T20:44:17.212Z,85.92
2022-10-28T20:46:48.251Z,87.18
2022-10-28T20:49:16.893Z,84.13
2022-10-28T20:51:44.729Z,85.72
2022-10-28T20:54:12.738Z,87.02
2022-10-28T20:56:42.427Z,87.47
2022-10-28T20:59:10.620Z,85.61
2022-10-28T21:01:39.991Z,81.51
2022-10-28T21:04:10.470Z,85.75
2022-10-28T21:06:38.730Z,84.42
2022-10-28T21:09:07.060Z,82.24
2022-10-28T21:11:35.436Z,82.37
2022-10-28T21:14:03.345Z,83.66
2022-10-28T21:16:31.550Z,85.89
2022-10-28T21:19:00.042Z,85.99
2022-10-28T21:21:28.369Z,84.99
2022-10-28T21:23:56.296Z,85.36
2022-10-28T21:26:25.780Z,87.04
2022-10-28T21:28:53.807Z,86.30
2022-10-28T21:31:22.280Z,88.36
2022-10-28T21:36:23.642Z,89.75
2022-10-28T21:38:56.238Z,90.40
2022-10-28T21:41:24.923Z,92.33
2022-10-28T21:43:54.040Z,85.81
2022-10-28T21:46:22.752Z,86.09
2022-10-28T21:48:50.889Z,83.08
2022-10-28T21:51:19.172Z,86.95
2022-10-28T21:53:47.188Z,89.13
2022-10-28T21:56:18.798Z,89.18
2022-10-28T21:58:48.963Z,82.87
2022-10-28T22:01:22.169Z,83.92
2022-10-28T22:03:51.679Z,84.32
2022-10-28T22:06:19.558Z,84.74
2022-10-28T22:08:47.778Z,88.59
2022-10-28T22:11:18.042Z,86.52
2022-10-28T22:13:46.833Z,86.51
2022-10-28T22:16:17.200Z,83.61
2022-10-28T22:18:45.269Z,81.06
2022-10-28T22:21:18.374Z,83.92
2022-10-28T22:23:46.926Z,85.05
2022-10-28T22:26:20.118Z,88.00
2022-10-28T22:28:48.816Z,85.17
2022-10-28T22:31:19.800Z,85.03
2022-10-28T22:33:48.056Z,87.46
2022-10-28T22:36:19.380Z,88.50
2022-10-28T22:38:47.690Z,88.26
2022-10-28T22:41:24.961Z,86.91
2022-10-28T22:43:55.699Z,85.59
2022-10-28T22:46:26.396Z,85.56
2022-10-28T22:48:54.829Z,85.42
2022-10-28T22:51:23.208Z,83.06
2022-10-28T22:53:51.260Z,80.67
2022-10-28T22:56:21.683Z,84.39
2022-10-28T22:58:54.478Z,81.05
2022-10-28T23:01:23.826Z,84.94
2022-10-28T23:03:53.354Z,81.70
2022-10-28T23:06:23.395Z,79.49
2022-10-28T23:08:51.757Z,82.48
2022-10-28T23:11:21.374Z,81.01
2022-10-28T23:13:55.910Z,83.33
2022-10-28T23:16:24.589Z,86.47
2022-10-28T23:18:55.453Z,85.91
2022-10-28T23:21:25.317Z,87.58
2022-10-28T23:23:58.728Z,83.94
2022-10-28T23:26:28.499Z,87.84
2022-10-28T23:28:58.651Z,84.59
2022-10-28T23:31:27.404Z,86.28
2022-10-28T23:33:55.779Z,87.49
2022-10-28T23:36:24.068Z,85.80
2022-10-28T23:38:52.720Z,84.91
2022-10-28T23:41:21.253Z,85.06
2022-10-28T23:43:49.809Z,85.33
2022-10-28T23:46:17.978Z,85.77
2022-10-28T23:48:45.905Z,83.94
2022-10-28T23:51:14.456Z,85.64
2022-10-28T23:53:42.407Z,86.29
2022-10-28T23:56:10.796Z,86.86
2022-10-28T23:58:38.958Z,87.51
